Pagrindinis puslapis
METAR-TAF:

METAR-TAF

Oro uostai :

Uagadugu oro uostas

Uagadugu, Burkina Fasas

platuma: 12-21N, ilguma: 001-31W, Aukštis: 316 m

Dabartinis oras

Ataskaita buvo paskelbta 52 minutes, ne 23:00 UTC
Vėjas 7 kt iš Rytų/Šiaurės Rytų
Temperatūra 29°C
Drėgmė 15%
Slėgis 1011 hPa
Matomumas 10 km arba daugiau
nėra debesų žemiau 1500 m ir nėra kamuolinių lietaus debesų

METAR: DFFD 192300Z 07007KT CAVOK 29/00 Q1011 NOSIG

Laikas: 23:52 (23:52 UTC)

Prognozė

Ataskaita buvo paskelbta 52 minutes, ne 23:00 UTC
Prognozė galioja nuo 20 metu 00 UTC su 21 metu 06 UTC
Vėjas 10 kt iš Rytų
Matomumas: 8000 m
Laikinai
nuo 20 metu 06 UTC su 20 metu 10 UTC
Matomumas: 3500 m
migla
Laikinai
nuo 20 metu 18 UTC su 20 metu 20 UTC
Matomumas: 4000 m
migla

TAF: DFFD 192300Z 2000/2106 08010KT 8000 NSC TEMPO 2006/2010 3500 HZ TEMPO 2018/2020 4000 HZ

Orai ataskaitas ir orų prognozės (METAR, TAF).

turimą stotys yra geltonos ir raudonos taškus žemėlapyje.

Perkelti pele per norėdami pamatyti stoties vardą.

Tada spustelėkite, norėdami matyti oro stebėjimo ir prognozės.

Norėdami pakeisti žemėlapį: spustelėkite ant žalios mygtukų su juodo kryžiaus žemyn,; žalią mygtuką su brūkšneliu, jei norite nutolinti; arba žalių rodyklių gretimoms žemėlapius.


METAR-TAF: